createdAt,value
2022-08-17T00:00:34.694Z,30
2022-08-17T00:08:19.077Z,29
2022-08-17T00:16:55.730Z,28
2022-08-17T00:26:44.320Z,35
2022-08-17T00:34:53.696Z,32
2022-08-17T00:42:33.458Z,30
2022-08-17T00:50:23.042Z,31
2022-08-17T00:58:07.014Z,30
2022-08-17T01:06:04.464Z,32
2022-08-17T01:14:36.145Z,29
2022-08-17T01:22:10.688Z,28
2022-08-17T01:30:57.495Z,31
2022-08-17T01:39:00.281Z,33
2022-08-17T01:46:38.796Z,33
2022-08-17T01:54:14.471Z,32
2022-08-17T02:02:13.332Z,35
2022-08-17T02:11:22.270Z,34
2022-08-17T02:18:59.563Z,33
2022-08-17T02:26:40.680Z,33
2022-08-17T02:35:25.022Z,35
2022-08-17T02:43:24.839Z,36
2022-08-17T02:51:17.979Z,32
2022-08-17T02:59:55.252Z,36
2022-08-17T03:07:31.958Z,43
2022-08-17T03:15:01.886Z,41
2022-08-17T03:23:23.883Z,38
2022-08-17T03:31:06.699Z,37
2022-08-17T03:38:39.611Z,39
2022-08-17T03:47:02.021Z,38
2022-08-17T03:54:42.242Z,38
2022-08-17T04:02:12.493Z,39
2022-08-17T04:09:56.257Z,49
2022-08-17T04:17:41.762Z,40
2022-08-17T04:25:27.101Z,44
2022-08-17T04:34:07.194Z,41
2022-08-17T04:41:32.153Z,43
2022-08-17T04:49:34.597Z,41
2022-08-17T04:57:24.800Z,40
2022-08-17T05:05:33.190Z,43
2022-08-17T05:13:10.740Z,44
2022-08-17T05:20:35.749Z,42
2022-08-17T05:29:02.641Z,46
2022-08-17T05:36:43.840Z,46
2022-08-17T05:44:15.041Z,48
2022-08-17T05:52:18.748Z,49
2022-08-17T06:00:01.829Z,48
2022-08-17T06:07:37.113Z,45
2022-08-17T06:15:13.661Z,41
2022-08-17T06:22:57.216Z,40
2022-08-17T06:30:57.698Z,48
2022-08-17T06:38:38.140Z,40
2022-08-17T06:46:41.876Z,46
2022-08-17T06:54:36.111Z,37
2022-08-17T07:02:54.608Z,41
2022-08-17T07:10:42.130Z,40
2022-08-17T07:18:47.211Z,39
2022-08-17T07:26:30.676Z,36
2022-08-17T07:34:17.514Z,38
2022-08-17T07:42:01.913Z,34
2022-08-17T07:49:43.974Z,35
2022-08-17T07:58:22.691Z,36
2022-08-17T08:07:09.729Z,33
2022-08-17T08:14:51.429Z,30
2022-08-17T08:23:46.279Z,29
2022-08-17T08:31:22.240Z,27
2022-08-17T08:40:42.366Z,30
2022-08-17T08:48:46.369Z,30
2022-08-17T08:57:46.042Z,26
2022-08-17T09:06:37.951Z,26
2022-08-17T09:14:21.077Z,22
2022-08-17T09:22:34.935Z,20
2022-08-17T09:30:03.728Z,21
2022-08-17T09:37:46.658Z,19
2022-08-17T09:45:25.775Z,14
2022-08-17T09:53:01.764Z,13
2022-08-17T10:01:34.723Z,15
2022-08-17T10:09:21.095Z,12
2022-08-17T10:17:41.916Z,17
2022-08-17T10:26:40.467Z,15
2022-08-17T10:34:53.587Z,13
2022-08-17T10:47:01.461Z,13
2022-08-17T11:06:04.345Z,14
2022-08-17T11:13:47.226Z,12
2022-08-17T11:21:27.495Z,12
2022-08-17T11:29:09.667Z,13
2022-08-17T11:36:54.608Z,15
2022-08-17T11:44:40.057Z,10
2022-08-17T11:53:01.497Z,13
2022-08-17T12:01:21.945Z,11
2022-08-17T12:08:55.274Z,12
2022-08-17T12:16:55.667Z,14
2022-08-17T12:24:43.706Z,12
2022-08-17T12:33:06.944Z,13
2022-08-17T12:40:46.350Z,14
2022-08-17T12:48:19.886Z,10
2022-08-17T12:56:38.584Z,11
2022-08-17T13:04:15.266Z,13
2022-08-17T13:11:40.165Z,13
2022-08-17T13:19:18.837Z,12
2022-08-17T13:27:28.433Z,11
2022-08-17T13:36:19.375Z,13
2022-08-17T13:44:12.639Z,12
2022-08-17T13:52:01.860Z,11
2022-08-17T14:00:28.774Z,14
2022-08-17T14:08:43.537Z,12
2022-08-17T14:16:30.040Z,14
2022-08-17T14:24:07.303Z,12
2022-08-17T14:32:10.450Z,13
2022-08-17T14:39:43.736Z,12
2022-08-17T14:47:25.841Z,10
2022-08-17T14:55:08.969Z,12
2022-08-17T15:03:23.810Z,12
2022-08-17T15:11:03.142Z,9
2022-08-17T15:18:48.924Z,10
2022-08-17T15:26:26.882Z,12
2022-08-17T15:34:20.033Z,13
2022-08-17T15:41:59.020Z,12
2022-08-17T15:49:32.169Z,10
2022-08-17T15:57:22.682Z,11
2022-08-17T16:07:24.437Z,12
2022-08-17T16:15:14.786Z,14
2022-08-17T16:23:28.178Z,18
2022-08-17T16:31:12.970Z,17
2022-08-17T16:38:58.703Z,17
2022-08-17T16:46:35.273Z,18
2022-08-17T16:54:33.355Z,18
2022-08-17T17:02:27.425Z,16
2022-08-17T17:10:07.115Z,15
2022-08-17T17:18:19.407Z,5
2022-08-17T17:25:59.396Z,6
2022-08-17T17:34:00.107Z,7
2022-08-17T17:41:38.517Z,5
2022-08-17T17:50:02.255Z,8
2022-08-17T17:58:28.217Z,6
2022-08-17T18:06:09.837Z,6
2022-08-17T18:13:56.867Z,10
2022-08-17T18:21:44.222Z,8
2022-08-17T18:29:24.237Z,8
2022-08-17T18:37:21.315Z,8
2022-08-17T18:44:58.491Z,9
2022-08-17T18:52:40.556Z,8
2022-08-17T19:00:24.469Z,8
2022-08-17T19:08:36.390Z,12
2022-08-17T19:16:15.650Z,13
2022-08-17T19:23:53.317Z,10
2022-08-17T19:32:26.922Z,9
2022-08-17T19:40:11.980Z,10
2022-08-17T19:48:23.585Z,10
2022-08-17T19:56:09.728Z,11
2022-08-17T20:03:52.567Z,10
2022-08-17T20:12:06.469Z,11
2022-08-17T20:20:19.272Z,11
2022-08-17T20:28:16.443Z,12
2022-08-17T20:36:02.260Z,9
2022-08-17T20:43:35.890Z,13
2022-08-17T20:52:00.486Z,13
2022-08-17T20:59:29.398Z,12
2022-08-17T21:07:20.330Z,10
2022-08-17T21:15:29.008Z,12
2022-08-17T21:23:08.958Z,14
2022-08-17T21:31:19.588Z,12
2022-08-17T21:39:18.703Z,11
2022-08-17T21:46:59.906Z,14
2022-08-17T21:54:37.898Z,15
2022-08-17T22:02:39.204Z,16
2022-08-17T22:10:24.323Z,16
2022-08-17T22:18:28.306Z,13
2022-08-17T22:26:01.413Z,17
2022-08-17T22:33:30.205Z,17
2022-08-17T22:41:09.078Z,17
2022-08-17T22:48:43.799Z,16
2022-08-17T22:56:29.762Z,18
2022-08-17T23:04:17.624Z,17
2022-08-17T23:16:27.838Z,19
2022-08-17T23:24:19.059Z,16
2022-08-17T23:31:46.912Z,18
2022-08-17T23:39:16.978Z,21
2022-08-17T23:47:01.252Z,20
2022-08-17T23:54:41.281Z,17
